createdAt,value
2024-02-05T00:01:41.660Z,101624.56
2024-02-05T00:04:31.708Z,101637.09
2024-02-05T00:07:21.538Z,101625.88
2024-02-05T00:10:11.757Z,101632.19
2024-02-05T00:13:01.467Z,101631.09
2024-02-05T00:15:52.458Z,101640.94
2024-02-05T00:18:42.619Z,101618.25
2024-02-05T00:21:32.506Z,101637.59
2024-02-05T00:24:21.835Z,101625.47
2024-02-05T00:27:11.219Z,101624.63
2024-02-05T00:30:00.672Z,101620.00
2024-02-05T00:32:51.733Z,101627.09
2024-02-05T00:35:41.033Z,101602.28
2024-02-05T00:38:30.609Z,101621.81
2024-02-05T00:41:19.870Z,101613.38
2024-02-05T00:44:09.161Z,101619.91
2024-02-05T00:46:58.521Z,101625.84
2024-02-05T00:49:49.447Z,101625.91
2024-02-05T00:52:39.094Z,101621.53
2024-02-05T00:55:29.019Z,101612.16
2024-02-05T00:58:18.685Z,101614.06
2024-02-05T01:01:08.460Z,101604.75
2024-02-05T01:03:58.143Z,101580.69
2024-02-05T01:06:49.057Z,101617.44
2024-02-05T01:09:38.837Z,101603.53
2024-02-05T01:12:29.208Z,101600.25
2024-02-05T01:15:18.580Z,101592.34
2024-02-05T01:18:08.207Z,101594.91
2024-02-05T01:21:00.455Z,101587.91
2024-02-05T01:23:51.198Z,101583.03
2024-02-05T01:26:40.897Z,101572.66
2024-02-05T01:29:30.525Z,101593.97
2024-02-05T01:32:19.904Z,101577.69
2024-02-05T01:35:10.409Z,101574.44
2024-02-05T01:37:59.790Z,101565.09
2024-02-05T01:40:50.630Z,101552.00
2024-02-05T01:43:40.055Z,101571.56
2024-02-05T01:46:33.951Z,101549.03
2024-02-05T01:49:25.002Z,101550.34
2024-02-05T01:52:21.030Z,101539.31
2024-02-05T01:55:13.754Z,101531.19
2024-02-05T01:58:05.039Z,101521.78
2024-02-05T02:00:57.019Z,101522.97
2024-02-05T02:03:49.170Z,101510.69
2024-02-05T02:06:40.190Z,101514.41
2024-02-05T02:09:29.579Z,101479.63
2024-02-05T02:12:19.189Z,101509.94
2024-02-05T02:15:10.993Z,101499.72
2024-02-05T02:18:04.647Z,101509.44
2024-02-05T02:20:55.100Z,101498.41
2024-02-05T02:23:46.519Z,101484.78
2024-02-05T02:26:36.844Z,101485.91
2024-02-05T02:29:26.309Z,101499.00
2024-02-05T02:32:28.685Z,101479.09
2024-02-05T02:35:30.785Z,101495.06
2024-02-05T02:38:24.676Z,101487.53
2024-02-05T02:41:21.506Z,101502.66
2024-02-05T02:44:11.231Z,101484.44
2024-02-05T02:47:05.201Z,101479.19
2024-02-05T02:49:56.006Z,101467.47
2024-02-05T02:52:45.413Z,101474.81
2024-02-05T02:55:34.982Z,101483.72
2024-02-05T02:58:25.787Z,101452.34
2024-02-05T03:01:15.740Z,101456.63
2024-02-05T03:04:05.411Z,101445.13
2024-02-05T03:06:54.973Z,101437.44
2024-02-05T03:09:44.381Z,101427.00
2024-02-05T03:12:33.791Z,101429.13
2024-02-05T03:15:24.426Z,101430.94
2024-02-05T03:18:14.642Z,101411.44
2024-02-05T03:21:04.150Z,101422.78
2024-02-05T03:23:53.568Z,101400.06
2024-02-05T03:26:42.833Z,101413.16
2024-02-05T03:29:32.540Z,101405.97
2024-02-05T03:32:23.169Z,101384.16
2024-02-05T03:35:13.937Z,101383.75
2024-02-05T03:38:03.316Z,101399.75
2024-02-05T03:40:52.596Z,101403.28
2024-02-05T03:43:43.284Z,101384.13
2024-02-05T03:46:32.601Z,101408.31
2024-02-05T03:49:23.406Z,101379.47
2024-02-05T03:52:12.924Z,101370.78
2024-02-05T03:55:02.375Z,101378.56
2024-02-05T03:58:01.203Z,101367.69
2024-02-05T04:00:51.273Z,101369.16
2024-02-05T04:03:41.165Z,101351.50
2024-02-05T04:06:32.105Z,101344.53
2024-02-05T04:09:21.561Z,101352.31
2024-02-05T04:12:10.970Z,101349.28
2024-02-05T04:15:00.294Z,101336.69
2024-02-05T04:17:49.654Z,101336.00
2024-02-05T04:20:39.047Z,101325.50
2024-02-05T04:23:29.869Z,101323.66
2024-02-05T04:26:19.561Z,101335.44
2024-02-05T04:29:15.840Z,101327.94
2024-02-05T04:32:06.088Z,101335.03
2024-02-05T04:34:55.588Z,101322.47
2024-02-05T04:37:45.414Z,101322.69
2024-02-05T04:40:36.195Z,101310.44
2024-02-05T04:43:25.521Z,101320.38
2024-02-05T04:46:14.947Z,101324.91
2024-02-05T04:49:04.571Z,101315.78
2024-02-05T04:51:53.995Z,101322.09
2024-02-05T04:54:43.571Z,101296.31
2024-02-05T04:57:34.396Z,101304.22
2024-02-05T05:00:24.147Z,101288.81
2024-02-05T05:03:13.506Z,101314.78
2024-02-05T05:06:02.889Z,101291.91
2024-02-05T05:08:52.249Z,101290.16
2024-02-05T05:11:41.558Z,101257.50
2024-02-05T05:14:32.229Z,101306.56
2024-02-05T05:17:21.663Z,101303.41
2024-02-05T05:20:13.206Z,101296.31
2024-02-05T05:23:02.544Z,101282.00
2024-02-05T05:25:58.747Z,101283.56
2024-02-05T05:28:49.055Z,101279.88
2024-02-05T05:31:39.856Z,101274.00
2024-02-05T05:34:29.227Z,101277.53
2024-02-05T05:37:18.794Z,101274.31
2024-02-05T05:40:11.252Z,101277.25
2024-02-05T05:43:00.941Z,101261.34
2024-02-05T05:45:50.328Z,101272.72
2024-02-05T05:48:41.357Z,101266.31
2024-02-05T05:51:30.743Z,101270.56
2024-02-05T05:54:21.181Z,101249.41
2024-02-05T05:57:10.455Z,101245.78
2024-02-05T06:00:00.534Z,101239.53
2024-02-05T06:02:50.664Z,101234.97
2024-02-05T06:05:41.390Z,101230.19
2024-02-05T06:08:30.675Z,101227.31
2024-02-05T06:11:19.962Z,101222.09
2024-02-05T06:14:09.354Z,101218.91
2024-02-05T06:16:58.730Z,101224.38
2024-02-05T06:19:48.186Z,101215.56
2024-02-05T06:22:39.077Z,101213.13
2024-02-05T06:25:28.538Z,101202.97
2024-02-05T06:28:18.657Z,101200.56
2024-02-05T06:31:08.191Z,101204.81
2024-02-05T06:33:57.772Z,101198.31
2024-02-05T06:36:47.298Z,101201.44
2024-02-05T06:39:38.267Z,101185.22
2024-02-05T06:42:27.531Z,101201.56
2024-02-05T06:45:17.927Z,101181.59
2024-02-05T06:48:08.630Z,101200.16
2024-02-05T06:50:58.031Z,101175.00
2024-02-05T06:53:47.492Z,101172.00
2024-02-05T06:56:38.290Z,101177.84
2024-02-05T06:59:27.546Z,101169.25
2024-02-05T07:02:20.092Z,101185.94
2024-02-05T07:05:11.921Z,101169.13
2024-02-05T07:08:01.364Z,101182.13
2024-02-05T07:10:50.676Z,101192.38
2024-02-05T07:13:41.506Z,101183.63
2024-02-05T07:16:30.941Z,101190.03
2024-02-05T07:19:20.508Z,101166.22
2024-02-05T07:22:10.780Z,101147.63
2024-02-05T07:25:00.834Z,101155.06
2024-02-05T07:27:50.424Z,101145.22
2024-02-05T07:30:41.629Z,101152.00
2024-02-05T07:33:31.103Z,101149.66
2024-02-05T07:36:20.969Z,101151.19
2024-02-05T07:39:11.412Z,101140.25
2024-02-05T07:42:00.867Z,101150.59
2024-02-05T07:44:50.171Z,101146.53
2024-02-05T07:47:41.012Z,101136.66
2024-02-05T07:50:30.291Z,101131.81
2024-02-05T07:53:19.770Z,101130.09
2024-02-05T07:56:11.823Z,101130.59
2024-02-05T07:59:01.204Z,101120.25
2024-02-05T08:01:50.727Z,101126.28
2024-02-05T08:04:42.415Z,101122.09
2024-02-05T08:07:31.900Z,101125.25
2024-02-05T08:10:21.458Z,101117.00
2024-02-05T08:13:10.793Z,101133.13
2024-02-05T08:16:00.189Z,101119.16
2024-02-05T08:18:50.790Z,101110.13
2024-02-05T08:21:41.668Z,101110.25
2024-02-05T08:24:31.032Z,101109.13
2024-02-05T08:27:20.337Z,101110.63
2024-02-05T08:30:11.004Z,101116.63
2024-02-05T08:33:00.807Z,101105.06
2024-02-05T08:35:50.571Z,101080.22
2024-02-05T08:38:42.668Z,101084.97
2024-02-05T08:41:32.042Z,101085.16
2024-02-05T08:44:23.575Z,101067.47
2024-02-05T08:47:14.399Z,101075.41
2024-02-05T08:50:04.064Z,101063.84
2024-02-05T08:52:53.635Z,101068.66
2024-02-05T08:55:44.381Z,101072.53
2024-02-05T08:58:33.795Z,101073.72
2024-02-05T09:01:23.370Z,101063.56
2024-02-05T09:04:12.920Z,101075.13
2024-02-05T09:07:02.440Z,101054.41
2024-02-05T09:09:51.853Z,101050.16
2024-02-05T09:12:42.842Z,101048.00
2024-02-05T09:15:32.164Z,101047.53
2024-02-05T09:18:23.629Z,101055.47
2024-02-05T09:21:13.164Z,101038.38
2024-02-05T09:24:02.513Z,101021.47
2024-02-05T09:26:52.292Z,101035.31
2024-02-05T09:29:44.993Z,101024.22
2024-02-05T09:32:34.593Z,101023.59
2024-02-05T09:35:24.024Z,101035.06
2024-02-05T09:38:13.909Z,101011.72
2024-02-05T09:41:08.050Z,101019.34
2024-02-05T09:43:58.184Z,101008.00
2024-02-05T09:46:51.840Z,100998.00
2024-02-05T09:49:41.883Z,100992.09
2024-02-05T09:52:32.196Z,101003.56
2024-02-05T09:55:23.074Z,100984.69
2024-02-05T09:58:13.213Z,100969.38
2024-02-05T10:01:03.998Z,100991.31
2024-02-05T10:03:55.928Z,100981.59
2024-02-05T10:06:51.279Z,100988.16
2024-02-05T10:09:42.239Z,101005.00
2024-02-05T10:12:36.217Z,100993.22
2024-02-05T10:15:25.654Z,100995.00
2024-02-05T10:18:15.099Z,100996.75
2024-02-05T10:21:06.663Z,100995.97
2024-02-05T10:23:56.389Z,100988.19
2024-02-05T10:26:45.763Z,100999.19
2024-02-05T10:29:35.086Z,100997.72
2024-02-05T10:32:24.650Z,100996.75
2024-02-05T10:35:19.015Z,101006.53
2024-02-05T10:38:13.631Z,100987.00
2024-02-05T10:41:03.669Z,101012.00
2024-02-05T10:43:53.005Z,100997.50
2024-02-05T10:46:42.523Z,100984.25
2024-02-05T10:49:32.800Z,101001.88
2024-02-05T10:52:23.828Z,100971.38
2024-02-05T10:55:15.840Z,100971.91
2024-02-05T10:58:06.691Z,100972.56
2024-02-05T11:01:01.506Z,100969.84
2024-02-05T11:03:56.550Z,100956.50
2024-02-05T11:06:50.318Z,100982.94
2024-02-05T11:09:41.089Z,100981.97
2024-02-05T11:12:34.075Z,100985.84
2024-02-05T11:15:23.825Z,100969.56
2024-02-05T11:18:17.340Z,100982.50
2024-02-05T11:21:09.251Z,100964.09
2024-02-05T11:23:59.666Z,100964.75
2024-02-05T11:26:49.074Z,100958.16
2024-02-05T11:29:45.214Z,100930.88
2024-02-05T11:32:36.571Z,100941.53
2024-02-05T11:35:31.241Z,100954.28
2024-02-05T11:38:23.132Z,100968.66
2024-02-05T11:41:12.832Z,100933.09
2024-02-05T11:44:07.098Z,100929.09
2024-02-05T11:46:57.778Z,100923.59
2024-02-05T11:49:47.388Z,100917.31
2024-02-05T11:52:40.384Z,100939.44
2024-02-05T11:55:30.154Z,100926.66
2024-02-05T11:58:19.622Z,100926.19
2024-02-05T12:01:11.060Z,100922.00
2024-02-05T12:04:02.263Z,100912.28
2024-02-05T12:06:52.341Z,100901.81
2024-02-05T12:09:41.738Z,100912.63
2024-02-05T12:12:31.947Z,100903.91
2024-02-05T12:15:23.499Z,100901.00
2024-02-05T12:18:12.939Z,100913.91
2024-02-05T12:21:04.471Z,100903.56
2024-02-05T12:23:54.898Z,100910.19
2024-02-05T12:26:44.290Z,100895.19
2024-02-05T12:29:34.082Z,100898.56
2024-02-05T12:32:27.905Z,100891.78
2024-02-05T12:35:22.619Z,100898.88
2024-02-05T12:38:13.823Z,100892.91
2024-02-05T12:41:03.935Z,100884.22
2024-02-05T12:43:53.748Z,100886.97
2024-02-05T12:46:43.344Z,100885.66
2024-02-05T12:49:33.207Z,100872.44
2024-02-05T12:52:23.936Z,100873.06
2024-02-05T12:55:15.064Z,100865.94
2024-02-05T12:58:04.475Z,100874.84
2024-02-05T13:00:54.147Z,100863.69
2024-02-05T13:03:43.684Z,100849.31
2024-02-05T13:06:33.252Z,100843.16
2024-02-05T13:09:22.580Z,100851.22
2024-02-05T13:12:14.134Z,100832.34
2024-02-05T13:15:04.229Z,100847.19
2024-02-05T13:17:54.137Z,100826.81
2024-02-05T13:20:44.907Z,100847.00
2024-02-05T13:23:34.245Z,100832.78
2024-02-05T13:26:23.567Z,100838.59
2024-02-05T13:29:14.340Z,100832.00
2024-02-05T13:32:03.816Z,100841.88
2024-02-05T13:34:53.258Z,100838.28
2024-02-05T13:37:42.747Z,100833.13
2024-02-05T13:40:33.233Z,100843.28
2024-02-05T13:43:22.573Z,100834.59
2024-02-05T13:46:13.658Z,100838.28
2024-02-05T13:49:03.910Z,100829.13
2024-02-05T13:51:53.427Z,100821.84
2024-02-05T13:54:42.864Z,100832.66
2024-02-05T13:57:32.252Z,100843.16
2024-02-05T14:00:22.377Z,100820.22
2024-02-05T14:03:13.174Z,100822.59
2024-02-05T14:06:02.733Z,100820.34
2024-02-05T14:08:52.728Z,100823.59
2024-02-05T14:11:41.983Z,100800.03
2024-02-05T14:14:37.081Z,100808.09
2024-02-05T14:17:26.438Z,100795.19
2024-02-05T14:20:17.288Z,100790.34
2024-02-05T14:23:06.779Z,100797.78
2024-02-05T14:25:56.038Z,100778.34
2024-02-05T14:28:45.324Z,100777.38
2024-02-05T14:31:34.716Z,100787.56
2024-02-05T14:34:25.029Z,100773.00
2024-02-05T14:37:15.880Z,100767.50
2024-02-05T14:40:06.936Z,100776.72
2024-02-05T14:42:56.409Z,100772.31
2024-02-05T14:45:46.066Z,100768.81
2024-02-05T14:48:35.862Z,100766.69
2024-02-05T14:51:25.773Z,100768.59
2024-02-05T14:54:16.618Z,100773.34
2024-02-05T14:57:06.452Z,100749.69
2024-02-05T14:59:56.218Z,100740.97
2024-02-05T15:02:45.601Z,100756.28
2024-02-05T15:05:35.271Z,100741.50
2024-02-05T15:08:24.811Z,100736.72
2024-02-05T15:11:15.565Z,100707.44
2024-02-05T15:14:04.971Z,100725.00
2024-02-05T15:16:54.268Z,100719.09
2024-02-05T15:19:45.058Z,100723.91
2024-02-05T15:22:35.396Z,100696.78
2024-02-05T15:25:25.004Z,100695.91
2024-02-05T15:28:15.784Z,100705.34
2024-02-05T15:31:05.412Z,100696.94
2024-02-05T15:33:54.875Z,100698.78
2024-02-05T15:36:44.402Z,100678.91
2024-02-05T15:39:33.844Z,100674.66
2024-02-05T15:42:23.198Z,100666.72
2024-02-05T15:45:18.024Z,100655.91
2024-02-05T15:48:08.247Z,100664.59
2024-02-05T15:50:58.366Z,100640.66
2024-02-05T15:53:47.996Z,100654.75
2024-02-05T15:56:42.583Z,100653.34
2024-02-05T15:59:32.795Z,100640.63
2024-02-05T16:02:23.542Z,100644.63
2024-02-05T16:05:13.374Z,100637.53
2024-02-05T16:08:02.899Z,100620.75
2024-02-05T16:10:52.340Z,100618.13
2024-02-05T16:13:41.984Z,100623.00
2024-02-05T16:16:31.764Z,100624.47
2024-02-05T16:19:22.723Z,100611.09
2024-02-05T16:22:12.127Z,100605.25
2024-02-05T16:25:01.468Z,100607.72
2024-02-05T16:27:51.023Z,100599.25
2024-02-05T16:30:40.456Z,100605.88
2024-02-05T16:33:29.936Z,100615.28
2024-02-05T16:36:20.758Z,100627.13
2024-02-05T16:39:11.040Z,100615.84
2024-02-05T16:42:00.430Z,100595.53
2024-02-05T16:44:49.760Z,100605.59
2024-02-05T16:47:39.426Z,100591.41
2024-02-05T16:50:28.933Z,100609.53
2024-02-05T16:53:19.887Z,100604.00
2024-02-05T16:56:11.141Z,100597.28
2024-02-05T16:59:00.568Z,100601.19
2024-02-05T17:01:50.313Z,100600.50
2024-02-05T17:04:39.896Z,100589.97
2024-02-05T17:07:29.291Z,100596.84
2024-02-05T17:10:20.442Z,100607.84
2024-02-05T17:13:09.916Z,100604.53
2024-02-05T17:15:59.490Z,100596.63
2024-02-05T17:18:49.168Z,100591.94
2024-02-05T17:21:43.606Z,100585.81
2024-02-05T17:24:36.381Z,100592.34
2024-02-05T17:27:28.149Z,100604.53
2024-02-05T17:30:17.671Z,100603.25
2024-02-05T17:33:07.307Z,100608.28
2024-02-05T17:35:56.832Z,100583.41
2024-02-05T17:38:46.122Z,100588.63
2024-02-05T17:41:35.516Z,100573.50
2024-02-05T17:44:26.191Z,100597.13
2024-02-05T17:47:15.825Z,100584.22
2024-02-05T17:50:06.071Z,100577.31
2024-02-05T17:52:57.334Z,100591.69
2024-02-05T17:55:46.810Z,100581.16
2024-02-05T17:58:36.400Z,100589.41
2024-02-05T18:01:27.239Z,100575.31
2024-02-05T18:04:16.826Z,100568.94
2024-02-05T18:07:06.924Z,100574.38
2024-02-05T18:09:56.402Z,100581.28
2024-02-05T18:12:45.943Z,100580.06
2024-02-05T18:15:35.450Z,100569.56
2024-02-05T18:18:26.714Z,100564.13
2024-02-05T18:21:16.986Z,100554.75
2024-02-05T18:24:08.286Z,100552.00
2024-02-05T18:26:59.808Z,100553.03
2024-02-05T18:29:49.286Z,100563.59
2024-02-05T18:32:38.600Z,100538.22
2024-02-05T18:35:29.590Z,100552.56
2024-02-05T18:38:19.095Z,100514.34
2024-02-05T18:41:10.277Z,100535.94
2024-02-05T18:43:59.692Z,100512.59
2024-02-05T18:46:49.070Z,100529.63
2024-02-05T18:49:38.617Z,100532.19
2024-02-05T18:52:29.493Z,100533.63
2024-02-05T18:55:18.963Z,100537.88
2024-02-05T18:58:08.444Z,100528.91
2024-02-05T19:00:58.330Z,100522.13
2024-02-05T19:03:47.867Z,100528.31
2024-02-05T19:06:37.324Z,100538.94
2024-02-05T19:09:28.695Z,100526.88
2024-02-05T19:12:18.145Z,100529.28
2024-02-05T19:15:08.217Z,100535.06
2024-02-05T19:17:57.679Z,100533.78
2024-02-05T19:20:47.102Z,100536.59
2024-02-05T19:23:36.528Z,100535.59
2024-02-05T19:26:27.331Z,100535.13
2024-02-05T19:29:20.747Z,100528.53
2024-02-05T19:32:10.667Z,100542.44
2024-02-05T19:35:00.933Z,100544.38
2024-02-05T19:37:51.012Z,100525.00
2024-02-05T19:40:40.608Z,100530.44
2024-02-05T19:43:31.543Z,100536.59
2024-02-05T19:46:21.052Z,100537.00
2024-02-05T19:49:10.636Z,100524.53
2024-02-05T19:52:00.094Z,100526.88
2024-02-05T19:54:49.554Z,100512.75
2024-02-05T19:57:40.908Z,100515.78
2024-02-05T20:00:31.817Z,100517.84
2024-02-05T20:03:21.472Z,100525.84
2024-02-05T20:06:11.010Z,100502.75
2024-02-05T20:09:01.461Z,100510.19
2024-02-05T20:11:50.763Z,100497.59
2024-02-05T20:14:40.136Z,100484.34
2024-02-05T20:17:30.896Z,100495.66
2024-02-05T20:20:20.862Z,100492.56
2024-02-05T20:23:10.469Z,100490.91
2024-02-05T20:26:00.046Z,100482.63
2024-02-05T20:28:49.395Z,100488.47
2024-02-05T20:31:39.339Z,100483.25
2024-02-05T20:34:31.291Z,100488.00
2024-02-05T20:37:21.075Z,100482.47
2024-02-05T20:40:11.328Z,100486.97
2024-02-05T20:43:01.038Z,100471.47
2024-02-05T20:45:51.040Z,100475.25
2024-02-05T20:48:40.572Z,100470.78
2024-02-05T20:51:31.549Z,100485.94
2024-02-05T20:54:20.796Z,100477.31
2024-02-05T20:57:10.130Z,100473.63
2024-02-05T20:59:59.426Z,100473.41
2024-02-05T21:02:48.777Z,100478.28
2024-02-05T21:05:38.068Z,100467.13
2024-02-05T21:08:29.056Z,100453.72
2024-02-05T21:11:18.562Z,100467.50
2024-02-05T21:14:07.997Z,100461.38
2024-02-05T21:16:59.722Z,100457.31
2024-02-05T21:19:49.165Z,100448.97
2024-02-05T21:22:38.662Z,100440.59
2024-02-05T21:25:29.502Z,100443.81
2024-02-05T21:28:19.018Z,100440.28
2024-02-05T21:31:08.443Z,100438.25
2024-02-05T21:33:57.838Z,100443.66
2024-02-05T21:36:48.566Z,100432.84
2024-02-05T21:39:38.081Z,100434.00
2024-02-05T21:42:28.906Z,100429.31
2024-02-05T21:45:18.300Z,100430.97
2024-02-05T21:48:11.549Z,100430.00
2024-02-05T21:51:01.263Z,100429.16
2024-02-05T21:53:50.681Z,100438.09
2024-02-05T21:56:40.239Z,100437.75
2024-02-05T21:59:31.007Z,100420.97
2024-02-05T22:02:20.484Z,100428.72
2024-02-05T22:05:10.562Z,100421.44
2024-02-05T22:08:00.897Z,100420.91
2024-02-05T22:10:50.205Z,100415.00
2024-02-05T22:13:39.657Z,100419.50
2024-02-05T22:16:30.495Z,100421.59
2024-02-05T22:19:19.972Z,100434.81
2024-02-05T22:22:10.258Z,100435.16
2024-02-05T22:24:59.917Z,100424.47
2024-02-05T22:27:49.287Z,100416.97
2024-02-05T22:30:38.527Z,100414.78
2024-02-05T22:33:35.238Z,100426.50
2024-02-05T22:36:27.550Z,100416.19
2024-02-05T22:39:16.929Z,100401.66
2024-02-05T22:42:06.799Z,100407.81
2024-02-05T22:44:56.292Z,100413.50
2024-02-05T22:47:45.856Z,100414.78
2024-02-05T22:50:36.639Z,100404.47
2024-02-05T22:53:26.268Z,100403.13
2024-02-05T22:56:15.714Z,100397.59
2024-02-05T22:59:05.054Z,100396.84
2024-02-05T23:01:54.453Z,100403.47
2024-02-05T23:04:43.930Z,100401.81
2024-02-05T23:07:35.278Z,100408.25
2024-02-05T23:10:25.815Z,100395.69
2024-02-05T23:13:15.236Z,100380.41
2024-02-05T23:16:05.401Z,100382.44
2024-02-05T23:18:54.897Z,100390.50
2024-02-05T23:21:44.346Z,100389.38
2024-02-05T23:24:35.054Z,100392.00
2024-02-05T23:27:24.360Z,100373.09
2024-02-05T23:30:14.859Z,100369.59
2024-02-05T23:33:04.451Z,100368.34
2024-02-05T23:35:54.010Z,100351.72
2024-02-05T23:38:43.557Z,100368.47
2024-02-05T23:41:36.180Z,100361.53
2024-02-05T23:44:25.631Z,100343.25
2024-02-05T23:47:15.165Z,100348.81
2024-02-05T23:50:04.567Z,100366.97
2024-02-05T23:52:54.115Z,100350.25
2024-02-05T23:55:43.612Z,100343.25
2024-02-05T23:58:35.513Z,100344.25
